sensor_id;sensor_type;location;lat;lon;timestamp;P1;durP1;ratioP1;P2;durP2;ratioP2
67869;SDS011;54673;52.262;6.830;2023-02-15T00:00:15;6.67;;;4.40;;
67869;SDS011;54673;52.262;6.830;2023-02-15T00:02:41;6.97;;;4.97;;
67869;SDS011;54673;52.262;6.830;2023-02-15T00:05:06;8.17;;;5.03;;
67869;SDS011;54673;52.262;6.830;2023-02-15T00:07:32;7.88;;;4.75;;
67869;SDS011;54673;52.262;6.830;2023-02-15T00:09:58;9.70;;;5.43;;
67869;SDS011;54673;52.262;6.830;2023-02-15T00:12:23;7.63;;;4.87;;
67869;SDS011;54673;52.262;6.830;2023-02-15T00:14:49;7.78;;;5.13;;
67869;SDS011;54673;52.262;6.830;2023-02-15T00:17:15;6.80;;;4.77;;
67869;SDS011;54673;52.262;6.830;2023-02-15T00:19:40;7.53;;;4.93;;
67869;SDS011;54673;52.262;6.830;2023-02-15T00:22:06;7.20;;;5.10;;
67869;SDS011;54673;52.262;6.830;2023-02-15T00:24:31;6.73;;;4.83;;
67869;SDS011;54673;52.262;6.830;2023-02-15T00:26:57;7.75;;;5.32;;
67869;SDS011;54673;52.262;6.830;2023-02-15T00:29:23;11.67;;;5.20;;
67869;SDS011;54673;52.262;6.830;2023-02-15T00:31:49;9.30;;;5.90;;
67869;SDS011;54673;52.262;6.830;2023-02-15T00:34:16;8.63;;;5.32;;
67869;SDS011;54673;52.262;6.830;2023-02-15T00:36:44;8.17;;;5.60;;
67869;SDS011;54673;52.262;6.830;2023-02-15T00:39:10;8.45;;;5.43;;
67869;SDS011;54673;52.262;6.830;2023-02-15T00:41:37;8.82;;;6.03;;
67869;SDS011;54673;52.262;6.830;2023-02-15T00:44:02;9.77;;;6.13;;
67869;SDS011;54673;52.262;6.830;2023-02-15T00:46:29;8.93;;;5.63;;
67869;SDS011;54673;52.262;6.830;2023-02-15T00:48:54;9.40;;;5.68;;
67869;SDS011;54673;52.262;6.830;2023-02-15T00:51:20;11.50;;;6.07;;
67869;SDS011;54673;52.262;6.830;2023-02-15T00:53:45;8.93;;;5.87;;
67869;SDS011;54673;52.262;6.830;2023-02-15T00:56:11;9.10;;;6.03;;
67869;SDS011;54673;52.262;6.830;2023-02-15T00:58:37;8.57;;;5.70;;
67869;SDS011;54673;52.262;6.830;2023-02-15T01:01:07;10.00;;;5.88;;
67869;SDS011;54673;52.262;6.830;2023-02-15T01:03:34;9.82;;;6.32;;
67869;SDS011;54673;52.262;6.830;2023-02-15T01:06:00;10.23;;;6.33;;
67869;SDS011;54673;52.262;6.830;2023-02-15T01:08:26;10.20;;;6.25;;
67869;SDS011;54673;52.262;6.830;2023-02-15T01:10:52;9.05;;;6.40;;
67869;SDS011;54673;52.262;6.830;2023-02-15T01:13:18;10.53;;;6.83;;
67869;SDS011;54673;52.262;6.830;2023-02-15T01:15:43;11.05;;;7.07;;
67869;SDS011;54673;52.262;6.830;2023-02-15T01:18:11;10.73;;;6.67;;
67869;SDS011;54673;52.262;6.830;2023-02-15T01:20:37;10.35;;;6.85;;
67869;SDS011;54673;52.262;6.830;2023-02-15T01:23:06;9.27;;;6.20;;
67869;SDS011;54673;52.262;6.830;2023-02-15T01:25:33;10.13;;;6.60;;
67869;SDS011;54673;52.262;6.830;2023-02-15T01:28:00;8.90;;;6.00;;
67869;SDS011;54673;52.262;6.830;2023-02-15T01:30:26;11.77;;;6.80;;
67869;SDS011;54673;52.262;6.830;2023-02-15T01:32:52;9.33;;;6.53;;
67869;SDS011;54673;52.262;6.830;2023-02-15T01:35:17;10.77;;;6.78;;
67869;SDS011;54673;52.262;6.830;2023-02-15T01:37:43;10.27;;;7.07;;
67869;SDS011;54673;52.262;6.830;2023-02-15T01:40:11;12.40;;;6.90;;
67869;SDS011;54673;52.262;6.830;2023-02-15T01:42:38;11.40;;;6.70;;
67869;SDS011;54673;52.262;6.830;2023-02-15T01:50:23;11.20;;;6.33;;
67869;SDS011;54673;52.262;6.830;2023-02-15T01:52:58;11.00;;;6.70;;
67869;SDS011;54673;52.262;6.830;2023-02-15T01:55:33;11.68;;;6.75;;
67869;SDS011;54673;52.262;6.830;2023-02-15T01:58:04;10.33;;;6.83;;
67869;SDS011;54673;52.262;6.830;2023-02-15T02:00:30;11.67;;;6.90;;
67869;SDS011;54673;52.262;6.830;2023-02-15T02:02:57;11.70;;;7.00;;
67869;SDS011;54673;52.262;6.830;2023-02-15T02:05:23;10.50;;;6.53;;
67869;SDS011;54673;52.262;6.830;2023-02-15T02:07:50;10.35;;;7.30;;
67869;SDS011;54673;52.262;6.830;2023-02-15T02:10:18;9.75;;;6.93;;
67869;SDS011;54673;52.262;6.830;2023-02-15T02:12:47;10.70;;;6.73;;
67869;SDS011;54673;52.262;6.830;2023-02-15T02:15:16;10.40;;;6.78;;
67869;SDS011;54673;52.262;6.830;2023-02-15T02:17:47;11.88;;;7.28;;
67869;SDS011;54673;52.262;6.830;2023-02-15T02:29:13;11.20;;;7.23;;
67869;SDS011;54673;52.262;6.830;2023-02-15T02:35:15;10.40;;;7.30;;
67869;SDS011;54673;52.262;6.830;2023-02-15T02:40:30;10.32;;;7.25;;
67869;SDS011;54673;52.262;6.830;2023-02-15T02:43:00;11.60;;;7.13;;
67869;SDS011;54673;52.262;6.830;2023-02-15T02:45:33;10.57;;;7.33;;
67869;SDS011;54673;52.262;6.830;2023-02-15T02:48:08;12.13;;;7.47;;
67869;SDS011;54673;52.262;6.830;2023-02-15T02:50:38;12.17;;;7.43;;
67869;SDS011;54673;52.262;6.830;2023-02-15T02:53:05;11.23;;;7.60;;
67869;SDS011;54673;52.262;6.830;2023-02-15T02:58:05;11.33;;;7.37;;
67869;SDS011;54673;52.262;6.830;2023-02-15T03:00:52;11.83;;;7.53;;
67869;SDS011;54673;52.262;6.830;2023-02-15T03:06:00;12.38;;;7.47;;
67869;SDS011;54673;52.262;6.830;2023-02-15T03:08:36;11.73;;;7.77;;
67869;SDS011;54673;52.262;6.830;2023-02-15T03:11:06;12.73;;;7.50;;
67869;SDS011;54673;52.262;6.830;2023-02-15T03:13:32;11.50;;;6.97;;
67869;SDS011;54673;52.262;6.830;2023-02-15T03:15:59;11.27;;;7.38;;
67869;SDS011;54673;52.262;6.830;2023-02-15T03:18:45;12.02;;;7.50;;
67869;SDS011;54673;52.262;6.830;2023-02-15T03:21:18;10.60;;;6.70;;
67869;SDS011;54673;52.262;6.830;2023-02-15T03:23:53;10.30;;;7.00;;
67869;SDS011;54673;52.262;6.830;2023-02-15T03:26:22;10.75;;;7.45;;
67869;SDS011;54673;52.262;6.830;2023-02-15T03:28:51;14.50;;;7.27;;
67869;SDS011;54673;52.262;6.830;2023-02-15T03:31:20;10.65;;;7.40;;
67869;SDS011;54673;52.262;6.830;2023-02-15T03:33:58;11.95;;;7.65;;
67869;SDS011;54673;52.262;6.830;2023-02-15T03:36:36;12.90;;;8.10;;
67869;SDS011;54673;52.262;6.830;2023-02-15T03:39:51;11.73;;;7.72;;
67869;SDS011;54673;52.262;6.830;2023-02-15T03:42:04;11.83;;;7.47;;
67869;SDS011;54673;52.262;6.830;2023-02-15T03:44:54;12.57;;;7.53;;
67869;SDS011;54673;52.262;6.830;2023-02-15T03:47:31;13.57;;;7.93;;
67869;SDS011;54673;52.262;6.830;2023-02-15T03:50:04;11.30;;;7.17;;
67869;SDS011;54673;52.262;6.830;2023-02-15T03:53:09;11.98;;;7.90;;
67869;SDS011;54673;52.262;6.830;2023-02-15T03:55:39;12.38;;;7.38;;
67869;SDS011;54673;52.262;6.830;2023-02-15T03:58:04;11.90;;;7.60;;
67869;SDS011;54673;52.262;6.830;2023-02-15T04:00:58;11.73;;;7.35;;
67869;SDS011;54673;52.262;6.830;2023-02-15T04:06:36;12.05;;;6.95;;
67869;SDS011;54673;52.262;6.830;2023-02-15T04:09:01;12.87;;;7.73;;
67869;SDS011;54673;52.262;6.830;2023-02-15T04:11:45;11.35;;;7.80;;
67869;SDS011;54673;52.262;6.830;2023-02-15T04:14:11;10.77;;;7.27;;
67869;SDS011;54673;52.262;6.830;2023-02-15T04:16:55;11.10;;;7.35;;
67869;SDS011;54673;52.262;6.830;2023-02-15T04:19:21;12.07;;;7.30;;
67869;SDS011;54673;52.262;6.830;2023-02-15T04:22:05;11.48;;;7.68;;
67869;SDS011;54673;52.262;6.830;2023-02-15T04:24:49;11.75;;;6.95;;
67869;SDS011;54673;52.262;6.830;2023-02-15T04:27:33;12.10;;;7.43;;
67869;SDS011;54673;52.262;6.830;2023-02-15T04:29:58;13.52;;;8.20;;
67869;SDS011;54673;52.262;6.830;2023-02-15T04:32:24;10.50;;;7.00;;
67869;SDS011;54673;52.262;6.830;2023-02-15T04:34:49;10.73;;;7.03;;
67869;SDS011;54673;52.262;6.830;2023-02-15T04:37:15;12.07;;;7.05;;
67869;SDS011;54673;52.262;6.830;2023-02-15T04:39:40;9.53;;;6.30;;
67869;SDS011;54673;52.262;6.830;2023-02-15T04:42:06;10.10;;;6.53;;
67869;SDS011;54673;52.262;6.830;2023-02-15T04:44:31;10.40;;;6.72;;
67869;SDS011;54673;52.262;6.830;2023-02-15T04:46:57;9.77;;;6.53;;
67869;SDS011;54673;52.262;6.830;2023-02-15T04:49:22;14.37;;;6.40;;
67869;SDS011;54673;52.262;6.830;2023-02-15T04:51:48;10.90;;;7.03;;
67869;SDS011;54673;52.262;6.830;2023-02-15T04:54:13;11.03;;;7.00;;
67869;SDS011;54673;52.262;6.830;2023-02-15T04:56:39;9.67;;;6.00;;
67869;SDS011;54673;52.262;6.830;2023-02-15T04:59:05;10.95;;;6.28;;
67869;SDS011;54673;52.262;6.830;2023-02-15T05:01:30;11.77;;;6.73;;
67869;SDS011;54673;52.262;6.830;2023-02-15T05:03:56;8.13;;;5.93;;
67869;SDS011;54673;52.262;6.830;2023-02-15T05:06:22;9.97;;;5.90;;
67869;SDS011;54673;52.262;6.830;2023-02-15T05:08:48;9.43;;;6.30;;
67869;SDS011;54673;52.262;6.830;2023-02-15T05:11:13;11.87;;;6.40;;
67869;SDS011;54673;52.262;6.830;2023-02-15T05:13:39;10.37;;;5.87;;
67869;SDS011;54673;52.262;6.830;2023-02-15T05:16:04;10.60;;;6.00;;
67869;SDS011;54673;52.262;6.830;2023-02-15T05:18:30;10.63;;;6.87;;
67869;SDS011;54673;52.262;6.830;2023-02-15T05:20:55;8.37;;;5.73;;
67869;SDS011;54673;52.262;6.830;2023-02-15T05:23:21;10.05;;;6.05;;
67869;SDS011;54673;52.262;6.830;2023-02-15T05:25:47;9.67;;;6.03;;
67869;SDS011;54673;52.262;6.830;2023-02-15T05:28:32;10.15;;;5.95;;
67869;SDS011;54673;52.262;6.830;2023-02-15T05:33:30;10.10;;;6.10;;
67869;SDS011;54673;52.262;6.830;2023-02-15T05:35:56;9.18;;;6.05;;
67869;SDS011;54673;52.262;6.830;2023-02-15T05:38:21;7.57;;;5.33;;
67869;SDS011;54673;52.262;6.830;2023-02-15T05:40:47;9.50;;;5.67;;
67869;SDS011;54673;52.262;6.830;2023-02-15T05:43:12;9.20;;;5.88;;
67869;SDS011;54673;52.262;6.830;2023-02-15T05:45:38;10.30;;;5.87;;
67869;SDS011;54673;52.262;6.830;2023-02-15T05:48:03;8.80;;;5.60;;
67869;SDS011;54673;52.262;6.830;2023-02-15T05:50:29;10.55;;;5.35;;
67869;SDS011;54673;52.262;6.830;2023-02-15T05:52:55;9.88;;;4.93;;
67869;SDS011;54673;52.262;6.830;2023-02-15T05:55:21;9.03;;;4.87;;
67869;SDS011;54673;52.262;6.830;2023-02-15T05:57:47;8.47;;;5.13;;
67869;SDS011;54673;52.262;6.830;2023-02-15T06:00:13;8.70;;;5.70;;
67869;SDS011;54673;52.262;6.830;2023-02-15T06:02:39;8.95;;;5.63;;
67869;SDS011;54673;52.262;6.830;2023-02-15T06:05:05;8.20;;;5.30;;
67869;SDS011;54673;52.262;6.830;2023-02-15T06:07:31;7.00;;;4.75;;
67869;SDS011;54673;52.262;6.830;2023-02-15T06:09:57;10.43;;;5.40;;
67869;SDS011;54673;52.262;6.830;2023-02-15T06:12:23;7.80;;;4.70;;
67869;SDS011;54673;52.262;6.830;2023-02-15T06:14:49;7.17;;;4.63;;
67869;SDS011;54673;52.262;6.830;2023-02-15T06:17:14;9.10;;;5.07;;
67869;SDS011;54673;52.262;6.830;2023-02-15T06:19:41;7.90;;;4.97;;
67869;SDS011;54673;52.262;6.830;2023-02-15T06:22:07;9.02;;;4.90;;
67869;SDS011;54673;52.262;6.830;2023-02-15T06:24:33;7.80;;;4.87;;
67869;SDS011;54673;52.262;6.830;2023-02-15T06:26:59;8.18;;;5.40;;
67869;SDS011;54673;52.262;6.830;2023-02-15T06:29:24;9.53;;;5.30;;
67869;SDS011;54673;52.262;6.830;2023-02-15T06:31:50;8.52;;;4.95;;
67869;SDS011;54673;52.262;6.830;2023-02-15T06:34:15;7.90;;;4.83;;
67869;SDS011;54673;52.262;6.830;2023-02-15T06:36:41;7.30;;;4.83;;
67869;SDS011;54673;52.262;6.830;2023-02-15T06:39:07;7.82;;;4.80;;
67869;SDS011;54673;52.262;6.830;2023-02-15T06:41:32;8.00;;;4.83;;
67869;SDS011;54673;52.262;6.830;2023-02-15T06:43:58;8.13;;;5.10;;
67869;SDS011;54673;52.262;6.830;2023-02-15T06:46:23;9.00;;;4.85;;
67869;SDS011;54673;52.262;6.830;2023-02-15T06:48:49;9.33;;;5.30;;
67869;SDS011;54673;52.262;6.830;2023-02-15T06:51:15;7.45;;;4.93;;
67869;SDS011;54673;52.262;6.830;2023-02-15T06:53:40;8.83;;;5.20;;
67869;SDS011;54673;52.262;6.830;2023-02-15T06:56:08;8.60;;;5.55;;
67869;SDS011;54673;52.262;6.830;2023-02-15T06:58:35;7.65;;;4.88;;
67869;SDS011;54673;52.262;6.830;2023-02-15T07:01:02;8.47;;;5.10;;
67869;SDS011;54673;52.262;6.830;2023-02-15T07:03:28;7.57;;;5.13;;
67869;SDS011;54673;52.262;6.830;2023-02-15T07:05:54;6.70;;;5.03;;
67869;SDS011;54673;52.262;6.830;2023-02-15T07:08:21;8.02;;;4.70;;
67869;SDS011;54673;52.262;6.830;2023-02-15T07:10:48;8.70;;;5.38;;
67869;SDS011;54673;52.262;6.830;2023-02-15T07:13:14;8.43;;;5.20;;
67869;SDS011;54673;52.262;6.830;2023-02-15T07:15:40;7.70;;;5.00;;
67869;SDS011;54673;52.262;6.830;2023-02-15T07:18:05;7.13;;;5.10;;
67869;SDS011;54673;52.262;6.830;2023-02-15T07:20:31;8.18;;;5.13;;
67869;SDS011;54673;52.262;6.830;2023-02-15T07:22:59;7.23;;;4.63;;
67869;SDS011;54673;52.262;6.830;2023-02-15T07:25:25;8.63;;;5.20;;
67869;SDS011;54673;52.262;6.830;2023-02-15T07:27:57;8.80;;;5.00;;
67869;SDS011;54673;52.262;6.830;2023-02-15T07:30:23;9.25;;;5.18;;
67869;SDS011;54673;52.262;6.830;2023-02-15T07:32:49;7.77;;;4.63;;
67869;SDS011;54673;52.262;6.830;2023-02-15T07:35:33;7.75;;;5.30;;
67869;SDS011;54673;52.262;6.830;2023-02-15T07:37:59;7.73;;;5.17;;
67869;SDS011;54673;52.262;6.830;2023-02-15T07:40:25;8.05;;;5.32;;
67869;SDS011;54673;52.262;6.830;2023-02-15T07:42:51;7.07;;;4.95;;
67869;SDS011;54673;52.262;6.830;2023-02-15T07:45:19;7.27;;;5.07;;
67869;SDS011;54673;52.262;6.830;2023-02-15T07:47:45;8.05;;;5.30;;
67869;SDS011;54673;52.262;6.830;2023-02-15T07:50:11;6.90;;;4.80;;
67869;SDS011;54673;52.262;6.830;2023-02-15T07:52:36;8.27;;;5.13;;
67869;SDS011;54673;52.262;6.830;2023-02-15T07:55:02;7.05;;;4.97;;
67869;SDS011;54673;52.262;6.830;2023-02-15T07:57:28;7.67;;;4.90;;
67869;SDS011;54673;52.262;6.830;2023-02-15T07:59:54;8.02;;;5.10;;
67869;SDS011;54673;52.262;6.830;2023-02-15T08:02:19;8.43;;;5.00;;
67869;SDS011;54673;52.262;6.830;2023-02-15T08:04:45;6.40;;;4.33;;
67869;SDS011;54673;52.262;6.830;2023-02-15T08:07:10;8.05;;;4.97;;
67869;SDS011;54673;52.262;6.830;2023-02-15T08:09:36;8.53;;;4.67;;
67869;SDS011;54673;52.262;6.830;2023-02-15T08:12:02;7.17;;;4.50;;
67869;SDS011;54673;52.262;6.830;2023-02-15T08:14:27;7.75;;;5.07;;
67869;SDS011;54673;52.262;6.830;2023-02-15T08:16:54;6.60;;;4.90;;
67869;SDS011;54673;52.262;6.830;2023-02-15T08:21:48;7.72;;;4.53;;
67869;SDS011;54673;52.262;6.830;2023-02-15T08:24:17;7.30;;;4.77;;
67869;SDS011;54673;52.262;6.830;2023-02-15T08:26:45;7.32;;;4.60;;
67869;SDS011;54673;52.262;6.830;2023-02-15T08:29:13;7.35;;;4.70;;
67869;SDS011;54673;52.262;6.830;2023-02-15T08:31:39;7.27;;;4.23;;
67869;SDS011;54673;52.262;6.830;2023-02-15T08:34:06;7.25;;;4.55;;
67869;SDS011;54673;52.262;6.830;2023-02-15T08:36:33;7.85;;;4.70;;
67869;SDS011;54673;52.262;6.830;2023-02-15T08:38:59;7.40;;;4.23;;
67869;SDS011;54673;52.262;6.830;2023-02-15T08:41:32;8.02;;;4.00;;
67869;SDS011;54673;52.262;6.830;2023-02-15T08:44:02;5.40;;;3.93;;
67869;SDS011;54673;52.262;6.830;2023-02-15T08:46:31;6.50;;;4.10;;
67869;SDS011;54673;52.262;6.830;2023-02-15T08:48:58;9.75;;;4.57;;
67869;SDS011;54673;52.262;6.830;2023-02-15T08:51:26;8.87;;;4.23;;
67869;SDS011;54673;52.262;6.830;2023-02-15T08:53:54;9.65;;;4.30;;
67869;SDS011;54673;52.262;6.830;2023-02-15T08:56:25;6.70;;;3.90;;
67869;SDS011;54673;52.262;6.830;2023-02-15T08:58:52;6.68;;;4.00;;
67869;SDS011;54673;52.262;6.830;2023-02-15T09:01:19;7.68;;;4.50;;
67869;SDS011;54673;52.262;6.830;2023-02-15T09:03:47;7.97;;;4.03;;
67869;SDS011;54673;52.262;6.830;2023-02-15T09:06:14;8.95;;;4.18;;
67869;SDS011;54673;52.262;6.830;2023-02-15T09:08:42;7.20;;;3.97;;
67869;SDS011;54673;52.262;6.830;2023-02-15T09:11:12;5.73;;;4.03;;
67869;SDS011;54673;52.262;6.830;2023-02-15T09:13:41;7.18;;;4.22;;
67869;SDS011;54673;52.262;6.830;2023-02-15T09:16:08;8.27;;;3.88;;
67869;SDS011;54673;52.262;6.830;2023-02-15T09:18:36;7.37;;;4.00;;
67869;SDS011;54673;52.262;6.830;2023-02-15T09:21:07;6.05;;;4.10;;
67869;SDS011;54673;52.262;6.830;2023-02-15T09:23:40;7.93;;;3.80;;
67869;SDS011;54673;52.262;6.830;2023-02-15T09:26:08;6.40;;;3.70;;
67869;SDS011;54673;52.262;6.830;2023-02-15T09:28:36;5.97;;;3.70;;
67869;SDS011;54673;52.262;6.830;2023-02-15T09:31:12;9.60;;;4.50;;
67869;SDS011;54673;52.262;6.830;2023-02-15T09:33:46;18.02;;;4.40;;
67869;SDS011;54673;52.262;6.830;2023-02-15T09:36:26;8.15;;;3.70;;
67869;SDS011;54673;52.262;6.830;2023-02-15T09:38:57;11.10;;;4.00;;
67869;SDS011;54673;52.262;6.830;2023-02-15T09:55:29;8.77;;;3.53;;
67869;SDS011;54673;52.262;6.830;2023-02-15T10:12:25;7.78;;;3.45;;
67869;SDS011;54673;52.262;6.830;2023-02-15T10:15:17;10.75;;;3.75;;
67869;SDS011;54673;52.262;6.830;2023-02-15T10:20:44;10.15;;;3.40;;
67869;SDS011;54673;52.262;6.830;2023-02-15T10:23:36;8.85;;;3.28;;
67869;SDS011;54673;52.262;6.830;2023-02-15T10:28:50;8.55;;;3.45;;
67869;SDS011;54673;52.262;6.830;2023-02-15T10:34:15;13.67;;;3.97;;
67869;SDS011;54673;52.262;6.830;2023-02-15T10:39:45;13.15;;;4.10;;
67869;SDS011;54673;52.262;6.830;2023-02-15T10:45:20;7.45;;;3.35;;
67869;SDS011;54673;52.262;6.830;2023-02-15T10:50:51;10.00;;;3.33;;
67869;SDS011;54673;52.262;6.830;2023-02-15T10:53:46;14.27;;;3.97;;
67869;SDS011;54673;52.262;6.830;2023-02-15T10:56:21;12.45;;;3.70;;
67869;SDS011;54673;52.262;6.830;2023-02-15T11:01:37;12.27;;;3.80;;
67869;SDS011;54673;52.262;6.830;2023-02-15T11:06:58;12.97;;;3.97;;
67869;SDS011;54673;52.262;6.830;2023-02-15T11:09:33;7.88;;;3.50;;
67869;SDS011;54673;52.262;6.830;2023-02-15T11:12:07;7.22;;;3.38;;
67869;SDS011;54673;52.262;6.830;2023-02-15T11:14:43;12.07;;;3.80;;
67869;SDS011;54673;52.262;6.830;2023-02-15T11:17:35;9.15;;;3.70;;
67869;SDS011;54673;52.262;6.830;2023-02-15T11:20:19;8.45;;;3.80;;
67869;SDS011;54673;52.262;6.830;2023-02-15T11:22:56;6.23;;;3.30;;
67869;SDS011;54673;52.262;6.830;2023-02-15T11:25:40;5.73;;;3.23;;
67869;SDS011;54673;52.262;6.830;2023-02-15T11:28:34;6.30;;;3.30;;
67869;SDS011;54673;52.262;6.830;2023-02-15T11:34:15;9.70;;;3.60;;
67869;SDS011;54673;52.262;6.830;2023-02-15T11:36:46;10.98;;;3.70;;
67869;SDS011;54673;52.262;6.830;2023-02-15T11:39:16;5.68;;;3.22;;
67869;SDS011;54673;52.262;6.830;2023-02-15T11:41:46;5.53;;;3.40;;
67869;SDS011;54673;52.262;6.830;2023-02-15T11:44:24;6.75;;;3.28;;
67869;SDS011;54673;52.262;6.830;2023-02-15T11:46:59;8.50;;;3.55;;
67869;SDS011;54673;52.262;6.830;2023-02-15T11:49:30;9.07;;;3.40;;
67869;SDS011;54673;52.262;6.830;2023-02-15T11:51:58;5.87;;;3.03;;
67869;SDS011;54673;52.262;6.830;2023-02-15T11:54:28;5.63;;;2.92;;
67869;SDS011;54673;52.262;6.830;2023-02-15T11:56:56;5.53;;;2.95;;
67869;SDS011;54673;52.262;6.830;2023-02-15T11:59:29;6.77;;;3.03;;
67869;SDS011;54673;52.262;6.830;2023-02-15T12:01:59;6.38;;;3.20;;
67869;SDS011;54673;52.262;6.830;2023-02-15T12:04:36;5.27;;;3.30;;
67869;SDS011;54673;52.262;6.830;2023-02-15T12:09:52;7.90;;;3.10;;
67869;SDS011;54673;52.262;6.830;2023-02-15T12:12:30;7.07;;;3.25;;
67869;SDS011;54673;52.262;6.830;2023-02-15T12:14:58;7.97;;;3.00;;
67869;SDS011;54673;52.262;6.830;2023-02-15T12:17:26;5.55;;;2.85;;
67869;SDS011;54673;52.262;6.830;2023-02-15T12:19:57;7.45;;;3.05;;
67869;SDS011;54673;52.262;6.830;2023-02-15T12:22:31;5.53;;;2.87;;
67869;SDS011;54673;52.262;6.830;2023-02-15T12:24:59;4.90;;;2.90;;
67869;SDS011;54673;52.262;6.830;2023-02-15T12:27:27;20.25;;;3.45;;
67869;SDS011;54673;52.262;6.830;2023-02-15T12:32:28;9.13;;;4.70;;
67869;SDS011;54673;52.262;6.830;2023-02-15T12:34:59;10.82;;;3.83;;
67869;SDS011;54673;52.262;6.830;2023-02-15T12:37:39;9.60;;;3.95;;
67869;SDS011;54673;52.262;6.830;2023-02-15T12:40:23;7.80;;;3.83;;
67869;SDS011;54673;52.262;6.830;2023-02-15T12:42:53;8.80;;;4.00;;
67869;SDS011;54673;52.262;6.830;2023-02-15T12:45:24;10.48;;;4.05;;
67869;SDS011;54673;52.262;6.830;2023-02-15T12:50:37;8.77;;;3.47;;
67869;SDS011;54673;52.262;6.830;2023-02-15T12:53:07;6.07;;;3.55;;
67869;SDS011;54673;52.262;6.830;2023-02-15T12:55:38;9.13;;;3.63;;
67869;SDS011;54673;52.262;6.830;2023-02-15T12:58:15;8.80;;;3.72;;
67869;SDS011;54673;52.262;6.830;2023-02-15T13:00:43;10.68;;;3.90;;
67869;SDS011;54673;52.262;6.830;2023-02-15T13:03:17;6.13;;;3.63;;
67869;SDS011;54673;52.262;6.830;2023-02-15T13:05:46;6.27;;;3.63;;
67869;SDS011;54673;52.262;6.830;2023-02-15T13:08:30;5.07;;;3.17;;
67869;SDS011;54673;52.262;6.830;2023-02-15T13:10:59;9.20;;;3.75;;
67869;SDS011;54673;52.262;6.830;2023-02-15T13:13:29;6.97;;;3.50;;
67869;SDS011;54673;52.262;6.830;2023-02-15T13:15:58;7.53;;;3.30;;
67869;SDS011;54673;52.262;6.830;2023-02-15T13:18:35;8.18;;;3.80;;
67869;SDS011;54673;52.262;6.830;2023-02-15T13:23:46;6.20;;;3.28;;
67869;SDS011;54673;52.262;6.830;2023-02-15T13:26:16;7.00;;;3.53;;
67869;SDS011;54673;52.262;6.830;2023-02-15T13:28:47;6.17;;;3.40;;
67869;SDS011;54673;52.262;6.830;2023-02-15T13:31:18;5.97;;;3.70;;
67869;SDS011;54673;52.262;6.830;2023-02-15T13:33:53;6.65;;;3.60;;
67869;SDS011;54673;52.262;6.830;2023-02-15T13:39:51;5.90;;;3.63;;
67869;SDS011;54673;52.262;6.830;2023-02-15T13:44:50;6.25;;;3.45;;
67869;SDS011;54673;52.262;6.830;2023-02-15T13:47:42;6.33;;;3.60;;
67869;SDS011;54673;52.262;6.830;2023-02-15T13:52:47;10.70;;;6.07;;
67869;SDS011;54673;52.262;6.830;2023-02-15T13:58:21;7.40;;;3.65;;
67869;SDS011;54673;52.262;6.830;2023-02-15T14:07:10;5.93;;;3.38;;
67869;SDS011;54673;52.262;6.830;2023-02-15T14:12:59;11.07;;;3.50;;
67869;SDS011;54673;52.262;6.830;2023-02-15T14:15:48;11.07;;;3.30;;
67869;SDS011;54673;52.262;6.830;2023-02-15T14:18:26;8.20;;;3.45;;
67869;SDS011;54673;52.262;6.830;2023-02-15T14:23:57;9.47;;;3.30;;
67869;SDS011;54673;52.262;6.830;2023-02-15T14:26:45;7.55;;;3.05;;
67869;SDS011;54673;52.262;6.830;2023-02-15T14:31:40;11.73;;;3.37;;
67869;SDS011;54673;52.262;6.830;2023-02-15T14:34:30;10.00;;;3.00;;
67869;SDS011;54673;52.262;6.830;2023-02-15T14:37:03;14.53;;;3.20;;
67869;SDS011;54673;52.262;6.830;2023-02-15T14:39:36;6.65;;;3.13;;
67869;SDS011;54673;52.262;6.830;2023-02-15T14:42:57;7.82;;;2.85;;
67869;SDS011;54673;52.262;6.830;2023-02-15T14:50:57;4.90;;;3.17;;
67869;SDS011;54673;52.262;6.830;2023-02-15T14:58:36;10.77;;;3.45;;
67869;SDS011;54673;52.262;6.830;2023-02-15T15:01:09;7.30;;;3.13;;
67869;SDS011;54673;52.262;6.830;2023-02-15T15:03:35;7.07;;;3.00;;
67869;SDS011;54673;52.262;6.830;2023-02-15T15:06:20;5.70;;;3.10;;
67869;SDS011;54673;52.262;6.830;2023-02-15T15:08:50;5.93;;;2.80;;
67869;SDS011;54673;52.262;6.830;2023-02-15T15:14:01;8.05;;;2.85;;
67869;SDS011;54673;52.262;6.830;2023-02-15T15:16:30;4.65;;;2.80;;
67869;SDS011;54673;52.262;6.830;2023-02-15T15:19:08;10.10;;;3.27;;
67869;SDS011;54673;52.262;6.830;2023-02-15T15:21:57;4.72;;;2.90;;
67869;SDS011;54673;52.262;6.830;2023-02-15T15:33:29;5.85;;;2.83;;
67869;SDS011;54673;52.262;6.830;2023-02-15T15:36:07;5.60;;;3.03;;
67869;SDS011;54673;52.262;6.830;2023-02-15T15:39:02;4.80;;;2.60;;
67869;SDS011;54673;52.262;6.830;2023-02-15T15:41:58;5.63;;;2.65;;
67869;SDS011;54673;52.262;6.830;2023-02-15T15:50:12;4.88;;;2.90;;
67869;SDS011;54673;52.262;6.830;2023-02-15T15:52:42;6.43;;;2.83;;
67869;SDS011;54673;52.262;6.830;2023-02-15T15:55:17;4.97;;;2.90;;
67869;SDS011;54673;52.262;6.830;2023-02-15T15:57:46;12.07;;;2.92;;
67869;SDS011;54673;52.262;6.830;2023-02-15T16:00:28;7.33;;;3.27;;
67869;SDS011;54673;52.262;6.830;2023-02-15T16:02:55;5.85;;;3.05;;
67869;SDS011;54673;52.262;6.830;2023-02-15T16:05:21;5.22;;;2.60;;
67869;SDS011;54673;52.262;6.830;2023-02-15T16:07:48;4.43;;;2.57;;
67869;SDS011;54673;52.262;6.830;2023-02-15T16:10:27;4.32;;;2.70;;
67869;SDS011;54673;52.262;6.830;2023-02-15T16:12:57;5.15;;;2.58;;
67869;SDS011;54673;52.262;6.830;2023-02-15T16:15:24;4.93;;;2.90;;
67869;SDS011;54673;52.262;6.830;2023-02-15T16:17:56;8.43;;;2.92;;
67869;SDS011;54673;52.262;6.830;2023-02-15T16:20:26;5.35;;;2.83;;
67869;SDS011;54673;52.262;6.830;2023-02-15T16:25:59;3.85;;;2.53;;
67869;SDS011;54673;52.262;6.830;2023-02-15T16:28:47;5.35;;;2.72;;
67869;SDS011;54673;52.262;6.830;2023-02-15T16:31:17;4.40;;;2.80;;
67869;SDS011;54673;52.262;6.830;2023-02-15T16:33:43;8.55;;;3.00;;
67869;SDS011;54673;52.262;6.830;2023-02-15T16:36:23;5.30;;;2.80;;
67869;SDS011;54673;52.262;6.830;2023-02-15T16:41:23;5.00;;;2.87;;
67869;SDS011;54673;52.262;6.830;2023-02-15T16:43:52;4.17;;;2.50;;
67869;SDS011;54673;52.262;6.830;2023-02-15T16:48:57;6.07;;;3.15;;
67869;SDS011;54673;52.262;6.830;2023-02-15T16:51:27;5.55;;;2.70;;
67869;SDS011;54673;52.262;6.830;2023-02-15T16:53:55;6.57;;;2.60;;
67869;SDS011;54673;52.262;6.830;2023-02-15T16:56:26;6.22;;;3.13;;
67869;SDS011;54673;52.262;6.830;2023-02-15T16:58:57;5.68;;;3.25;;
67869;SDS011;54673;52.262;6.830;2023-02-15T17:01:25;5.13;;;2.90;;
67869;SDS011;54673;52.262;6.830;2023-02-15T17:09:31;4.67;;;2.80;;
67869;SDS011;54673;52.262;6.830;2023-02-15T17:11:57;5.68;;;3.20;;
67869;SDS011;54673;52.262;6.830;2023-02-15T17:14:28;8.40;;;2.97;;
67869;SDS011;54673;52.262;6.830;2023-02-15T17:17:05;3.83;;;3.00;;
67869;SDS011;54673;52.262;6.830;2023-02-15T17:22:17;4.38;;;3.00;;
67869;SDS011;54673;52.262;6.830;2023-02-15T17:24:49;5.03;;;2.70;;
67869;SDS011;54673;52.262;6.830;2023-02-15T17:27:24;4.63;;;2.90;;
67869;SDS011;54673;52.262;6.830;2023-02-15T17:29:56;6.63;;;3.22;;
67869;SDS011;54673;52.262;6.830;2023-02-15T17:32:24;6.43;;;3.30;;
67869;SDS011;54673;52.262;6.830;2023-02-15T17:37:59;4.80;;;3.15;;
67869;SDS011;54673;52.262;6.830;2023-02-15T17:40:31;4.53;;;2.78;;
67869;SDS011;54673;52.262;6.830;2023-02-15T17:42:58;4.13;;;2.70;;
67869;SDS011;54673;52.262;6.830;2023-02-15T17:45:25;5.75;;;2.90;;
67869;SDS011;54673;52.262;6.830;2023-02-15T17:47:57;4.83;;;3.10;;
67869;SDS011;54673;52.262;6.830;2023-02-15T17:50:25;5.17;;;2.97;;
67869;SDS011;54673;52.262;6.830;2023-02-15T17:52:52;4.70;;;2.67;;
67869;SDS011;54673;52.262;6.830;2023-02-15T17:55:20;8.23;;;3.13;;